sensor_id;sensor_type;location;lat;lon;timestamp;P1;durP1;ratioP1;P2;durP2;ratioP2
18651;SDS011;9455;54.302;10.124;2024-02-26T00:01:06;12.80;;;8.03;;
18651;SDS011;9455;54.302;10.124;2024-02-26T00:03:32;12.60;;;7.87;;
18651;SDS011;9455;54.302;10.124;2024-02-26T00:06:00;11.97;;;7.23;;
18651;SDS011;9455;54.302;10.124;2024-02-26T00:08:27;13.47;;;7.50;;
18651;SDS011;9455;54.302;10.124;2024-02-26T00:10:54;16.87;;;7.63;;
18651;SDS011;9455;54.302;10.124;2024-02-26T00:13:20;14.87;;;7.80;;
18651;SDS011;9455;54.302;10.124;2024-02-26T00:15:49;9.60;;;7.13;;
18651;SDS011;9455;54.302;10.124;2024-02-26T00:18:15;10.87;;;7.27;;
18651;SDS011;9455;54.302;10.124;2024-02-26T00:20:42;16.33;;;7.73;;
18651;SDS011;9455;54.302;10.124;2024-02-26T00:23:09;12.53;;;7.43;;
18651;SDS011;9455;54.302;10.124;2024-02-26T00:25:35;16.63;;;7.63;;
18651;SDS011;9455;54.302;10.124;2024-02-26T00:28:02;11.30;;;7.33;;
18651;SDS011;9455;54.302;10.124;2024-02-26T00:30:30;11.00;;;7.33;;
18651;SDS011;9455;54.302;10.124;2024-02-26T00:32:58;11.50;;;7.33;;
18651;SDS011;9455;54.302;10.124;2024-02-26T00:35:24;14.13;;;7.57;;
18651;SDS011;9455;54.302;10.124;2024-02-26T00:37:51;12.87;;;7.10;;
18651;SDS011;9455;54.302;10.124;2024-02-26T00:40:18;9.23;;;6.50;;
18651;SDS011;9455;54.302;10.124;2024-02-26T00:42:44;11.13;;;6.70;;
18651;SDS011;9455;54.302;10.124;2024-02-26T00:45:12;10.50;;;7.00;;
18651;SDS011;9455;54.302;10.124;2024-02-26T00:47:39;15.30;;;6.80;;
18651;SDS011;9455;54.302;10.124;2024-02-26T00:50:08;11.03;;;6.43;;
18651;SDS011;9455;54.302;10.124;2024-02-26T00:52:35;10.87;;;6.57;;
18651;SDS011;9455;54.302;10.124;2024-02-26T00:55:02;13.87;;;7.23;;
18651;SDS011;9455;54.302;10.124;2024-02-26T00:57:30;14.97;;;7.87;;
18651;SDS011;9455;54.302;10.124;2024-02-26T00:59:56;15.47;;;7.70;;
18651;SDS011;9455;54.302;10.124;2024-02-26T01:02:24;13.03;;;7.87;;
18651;SDS011;9455;54.302;10.124;2024-02-26T01:04:50;13.00;;;7.57;;
18651;SDS011;9455;54.302;10.124;2024-02-26T01:07:19;14.50;;;8.03;;
18651;SDS011;9455;54.302;10.124;2024-02-26T01:09:45;12.90;;;7.97;;
18651;SDS011;9455;54.302;10.124;2024-02-26T01:12:12;16.57;;;8.17;;
18651;SDS011;9455;54.302;10.124;2024-02-26T01:14:39;14.63;;;7.90;;
18651;SDS011;9455;54.302;10.124;2024-02-26T01:17:05;14.70;;;8.10;;
18651;SDS011;9455;54.302;10.124;2024-02-26T01:19:32;11.67;;;7.50;;
18651;SDS011;9455;54.302;10.124;2024-02-26T01:21:59;14.67;;;7.30;;
18651;SDS011;9455;54.302;10.124;2024-02-26T01:24:27;16.20;;;8.90;;
18651;SDS011;9455;54.302;10.124;2024-02-26T01:26:53;13.60;;;7.90;;
18651;SDS011;9455;54.302;10.124;2024-02-26T01:29:20;12.33;;;7.50;;
18651;SDS011;9455;54.302;10.124;2024-02-26T01:31:46;15.37;;;8.03;;
18651;SDS011;9455;54.302;10.124;2024-02-26T01:34:13;12.17;;;7.87;;
18651;SDS011;9455;54.302;10.124;2024-02-26T01:36:40;15.83;;;7.97;;
18651;SDS011;9455;54.302;10.124;2024-02-26T01:39:06;13.17;;;8.33;;
18651;SDS011;9455;54.302;10.124;2024-02-26T01:41:38;12.03;;;7.27;;
18651;SDS011;9455;54.302;10.124;2024-02-26T01:44:04;14.30;;;7.57;;
18651;SDS011;9455;54.302;10.124;2024-02-26T01:46:31;15.07;;;8.20;;
18651;SDS011;9455;54.302;10.124;2024-02-26T01:49:00;13.27;;;7.77;;
18651;SDS011;9455;54.302;10.124;2024-02-26T01:51:28;13.90;;;8.30;;
18651;SDS011;9455;54.302;10.124;2024-02-26T01:53:55;14.00;;;8.03;;
18651;SDS011;9455;54.302;10.124;2024-02-26T01:56:22;16.83;;;8.47;;
18651;SDS011;9455;54.302;10.124;2024-02-26T01:58:54;13.00;;;7.57;;
18651;SDS011;9455;54.302;10.124;2024-02-26T02:01:21;13.97;;;8.17;;
18651;SDS011;9455;54.302;10.124;2024-02-26T02:03:51;14.13;;;7.97;;
18651;SDS011;9455;54.302;10.124;2024-02-26T02:06:18;12.90;;;7.70;;
18651;SDS011;9455;54.302;10.124;2024-02-26T02:08:45;13.50;;;7.70;;
18651;SDS011;9455;54.302;10.124;2024-02-26T02:11:12;10.97;;;6.77;;
18651;SDS011;9455;54.302;10.124;2024-02-26T02:13:40;12.30;;;7.63;;
18651;SDS011;9455;54.302;10.124;2024-02-26T02:16:08;13.37;;;7.30;;
18651;SDS011;9455;54.302;10.124;2024-02-26T02:18:35;15.37;;;7.77;;
18651;SDS011;9455;54.302;10.124;2024-02-26T02:21:03;14.63;;;7.87;;
18651;SDS011;9455;54.302;10.124;2024-02-26T02:23:30;20.60;;;9.77;;
18651;SDS011;9455;54.302;10.124;2024-02-26T02:25:57;22.60;;;8.90;;
18651;SDS011;9455;54.302;10.124;2024-02-26T02:28:24;36.40;;;8.83;;
18651;SDS011;9455;54.302;10.124;2024-02-26T02:30:52;17.27;;;8.30;;
18651;SDS011;9455;54.302;10.124;2024-02-26T02:33:19;18.90;;;8.70;;
18651;SDS011;9455;54.302;10.124;2024-02-26T02:35:47;16.07;;;8.33;;
18651;SDS011;9455;54.302;10.124;2024-02-26T02:38:17;23.20;;;9.17;;
18651;SDS011;9455;54.302;10.124;2024-02-26T02:40:43;19.87;;;9.07;;
18651;SDS011;9455;54.302;10.124;2024-02-26T02:43:10;19.17;;;9.37;;
18651;SDS011;9455;54.302;10.124;2024-02-26T02:45:37;26.93;;;8.40;;
18651;SDS011;9455;54.302;10.124;2024-02-26T02:48:04;23.07;;;9.27;;
18651;SDS011;9455;54.302;10.124;2024-02-26T02:50:31;18.87;;;9.20;;
18651;SDS011;9455;54.302;10.124;2024-02-26T02:52:58;17.97;;;8.27;;
18651;SDS011;9455;54.302;10.124;2024-02-26T02:55:27;19.40;;;8.83;;
18651;SDS011;9455;54.302;10.124;2024-02-26T02:57:55;18.07;;;8.00;;
18651;SDS011;9455;54.302;10.124;2024-02-26T03:00:22;22.47;;;8.73;;
18651;SDS011;9455;54.302;10.124;2024-02-26T03:02:48;17.67;;;9.27;;
18651;SDS011;9455;54.302;10.124;2024-02-26T03:05:16;22.37;;;9.17;;
18651;SDS011;9455;54.302;10.124;2024-02-26T03:07:42;19.47;;;8.97;;
18651;SDS011;9455;54.302;10.124;2024-02-26T03:10:09;17.90;;;9.27;;
18651;SDS011;9455;54.302;10.124;2024-02-26T03:12:37;24.87;;;8.90;;
18651;SDS011;9455;54.302;10.124;2024-02-26T03:15:04;19.33;;;8.77;;
18651;SDS011;9455;54.302;10.124;2024-02-26T03:17:31;17.10;;;8.93;;
18651;SDS011;9455;54.302;10.124;2024-02-26T03:19:58;22.70;;;9.43;;
18651;SDS011;9455;54.302;10.124;2024-02-26T03:22:25;18.73;;;8.83;;
18651;SDS011;9455;54.302;10.124;2024-02-26T03:24:52;17.73;;;8.93;;
18651;SDS011;9455;54.302;10.124;2024-02-26T03:27:18;16.47;;;8.23;;
18651;SDS011;9455;54.302;10.124;2024-02-26T03:29:46;14.80;;;7.97;;
18651;SDS011;9455;54.302;10.124;2024-02-26T03:32:13;18.57;;;8.63;;
18651;SDS011;9455;54.302;10.124;2024-02-26T03:34:40;16.63;;;8.00;;
18651;SDS011;9455;54.302;10.124;2024-02-26T03:37:06;18.13;;;8.47;;
18651;SDS011;9455;54.302;10.124;2024-02-26T03:39:35;17.00;;;8.57;;
18651;SDS011;9455;54.302;10.124;2024-02-26T03:42:02;17.60;;;8.53;;
18651;SDS011;9455;54.302;10.124;2024-02-26T03:44:29;17.30;;;8.70;;
18651;SDS011;9455;54.302;10.124;2024-02-26T03:46:57;18.03;;;8.90;;
18651;SDS011;9455;54.302;10.124;2024-02-26T03:49:23;14.60;;;7.67;;
18651;SDS011;9455;54.302;10.124;2024-02-26T03:51:50;13.57;;;7.20;;
18651;SDS011;9455;54.302;10.124;2024-02-26T03:54:16;12.57;;;7.27;;
18651;SDS011;9455;54.302;10.124;2024-02-26T03:56:43;10.40;;;6.70;;
18651;SDS011;9455;54.302;10.124;2024-02-26T03:59:10;10.17;;;6.70;;
18651;SDS011;9455;54.302;10.124;2024-02-26T04:01:36;15.47;;;7.30;;
18651;SDS011;9455;54.302;10.124;2024-02-26T04:04:05;15.70;;;7.70;;
18651;SDS011;9455;54.302;10.124;2024-02-26T04:06:32;10.53;;;6.60;;
18651;SDS011;9455;54.302;10.124;2024-02-26T04:08:58;13.57;;;7.97;;
18651;SDS011;9455;54.302;10.124;2024-02-26T04:11:26;16.17;;;7.17;;
18651;SDS011;9455;54.302;10.124;2024-02-26T04:13:52;16.13;;;8.00;;
18651;SDS011;9455;54.302;10.124;2024-02-26T04:16:19;14.20;;;7.43;;
18651;SDS011;9455;54.302;10.124;2024-02-26T04:18:45;15.23;;;7.50;;
18651;SDS011;9455;54.302;10.124;2024-02-26T04:21:13;14.57;;;7.47;;
18651;SDS011;9455;54.302;10.124;2024-02-26T04:23:40;12.27;;;7.30;;
18651;SDS011;9455;54.302;10.124;2024-02-26T04:26:07;13.83;;;7.37;;
18651;SDS011;9455;54.302;10.124;2024-02-26T04:28:33;12.17;;;6.60;;
18651;SDS011;9455;54.302;10.124;2024-02-26T04:31:01;14.40;;;7.37;;
18651;SDS011;9455;54.302;10.124;2024-02-26T04:33:27;13.43;;;6.90;;
18651;SDS011;9455;54.302;10.124;2024-02-26T04:35:54;19.10;;;8.43;;
18651;SDS011;9455;54.302;10.124;2024-02-26T04:38:22;14.83;;;7.03;;
18651;SDS011;9455;54.302;10.124;2024-02-26T04:40:49;14.27;;;7.23;;
18651;SDS011;9455;54.302;10.124;2024-02-26T04:43:15;16.93;;;7.70;;
18651;SDS011;9455;54.302;10.124;2024-02-26T04:45:43;17.37;;;8.03;;
18651;SDS011;9455;54.302;10.124;2024-02-26T04:48:09;13.33;;;7.00;;
18651;SDS011;9455;54.302;10.124;2024-02-26T04:50:36;12.33;;;6.97;;
18651;SDS011;9455;54.302;10.124;2024-02-26T04:53:03;15.73;;;7.77;;
18651;SDS011;9455;54.302;10.124;2024-02-26T04:55:31;12.43;;;6.90;;
18651;SDS011;9455;54.302;10.124;2024-02-26T04:57:58;14.70;;;7.60;;
18651;SDS011;9455;54.302;10.124;2024-02-26T05:00:24;14.77;;;7.50;;
18651;SDS011;9455;54.302;10.124;2024-02-26T05:02:51;13.60;;;7.20;;
18651;SDS011;9455;54.302;10.124;2024-02-26T05:05:18;14.97;;;7.23;;
18651;SDS011;9455;54.302;10.124;2024-02-26T05:07:44;12.63;;;7.13;;
18651;SDS011;9455;54.302;10.124;2024-02-26T05:10:11;12.47;;;7.10;;
18651;SDS011;9455;54.302;10.124;2024-02-26T05:12:39;17.63;;;8.47;;
18651;SDS011;9455;54.302;10.124;2024-02-26T05:15:08;15.03;;;7.30;;
18651;SDS011;9455;54.302;10.124;2024-02-26T05:17:35;17.57;;;7.60;;
18651;SDS011;9455;54.302;10.124;2024-02-26T05:20:02;16.77;;;7.93;;
18651;SDS011;9455;54.302;10.124;2024-02-26T05:22:29;15.53;;;7.90;;
18651;SDS011;9455;54.302;10.124;2024-02-26T05:24:55;18.37;;;8.57;;
18651;SDS011;9455;54.302;10.124;2024-02-26T05:27:22;15.63;;;7.87;;
18651;SDS011;9455;54.302;10.124;2024-02-26T05:29:50;17.03;;;8.13;;
18651;SDS011;9455;54.302;10.124;2024-02-26T05:32:19;15.10;;;8.00;;
18651;SDS011;9455;54.302;10.124;2024-02-26T05:34:46;17.80;;;8.00;;
18651;SDS011;9455;54.302;10.124;2024-02-26T05:37:12;17.47;;;8.70;;
18651;SDS011;9455;54.302;10.124;2024-02-26T05:39:39;15.27;;;7.83;;
18651;SDS011;9455;54.302;10.124;2024-02-26T05:42:06;13.80;;;7.80;;
18651;SDS011;9455;54.302;10.124;2024-02-26T05:44:34;13.60;;;7.13;;
18651;SDS011;9455;54.302;10.124;2024-02-26T05:47:02;12.63;;;6.73;;
18651;SDS011;9455;54.302;10.124;2024-02-26T05:49:29;13.63;;;7.57;;
18651;SDS011;9455;54.302;10.124;2024-02-26T05:51:56;13.33;;;7.23;;
18651;SDS011;9455;54.302;10.124;2024-02-26T05:54:23;12.83;;;7.40;;
18651;SDS011;9455;54.302;10.124;2024-02-26T05:56:49;14.13;;;6.63;;
18651;SDS011;9455;54.302;10.124;2024-02-26T05:59:17;17.37;;;8.37;;
18651;SDS011;9455;54.302;10.124;2024-02-26T06:01:43;11.53;;;7.07;;
18651;SDS011;9455;54.302;10.124;2024-02-26T06:04:11;12.70;;;7.07;;
18651;SDS011;9455;54.302;10.124;2024-02-26T06:06:38;15.93;;;6.93;;
18651;SDS011;9455;54.302;10.124;2024-02-26T06:09:05;14.67;;;7.27;;
18651;SDS011;9455;54.302;10.124;2024-02-26T06:11:32;14.73;;;7.00;;
18651;SDS011;9455;54.302;10.124;2024-02-26T06:13:58;11.33;;;6.53;;
18651;SDS011;9455;54.302;10.124;2024-02-26T06:16:25;13.43;;;7.07;;
18651;SDS011;9455;54.302;10.124;2024-02-26T06:18:52;18.00;;;8.07;;
18651;SDS011;9455;54.302;10.124;2024-02-26T06:21:20;15.27;;;7.77;;
18651;SDS011;9455;54.302;10.124;2024-02-26T06:23:47;13.20;;;6.57;;
18651;SDS011;9455;54.302;10.124;2024-02-26T06:26:14;12.97;;;7.57;;
18651;SDS011;9455;54.302;10.124;2024-02-26T06:28:41;15.13;;;6.93;;
18651;SDS011;9455;54.302;10.124;2024-02-26T06:31:08;11.20;;;6.80;;
18651;SDS011;9455;54.302;10.124;2024-02-26T06:33:34;13.37;;;7.20;;
18651;SDS011;9455;54.302;10.124;2024-02-26T06:36:01;13.47;;;7.70;;
18651;SDS011;9455;54.302;10.124;2024-02-26T06:38:29;14.47;;;6.93;;
18651;SDS011;9455;54.302;10.124;2024-02-26T06:40:56;13.43;;;7.50;;
18651;SDS011;9455;54.302;10.124;2024-02-26T06:43:23;14.67;;;8.50;;
18651;SDS011;9455;54.302;10.124;2024-02-26T06:45:49;15.73;;;7.93;;
18651;SDS011;9455;54.302;10.124;2024-02-26T06:48:16;13.73;;;7.73;;
18651;SDS011;9455;54.302;10.124;2024-02-26T06:50:43;12.97;;;7.33;;
18651;SDS011;9455;54.302;10.124;2024-02-26T06:53:09;13.47;;;7.07;;
18651;SDS011;9455;54.302;10.124;2024-02-26T06:55:38;14.07;;;7.57;;
18651;SDS011;9455;54.302;10.124;2024-02-26T06:58:16;15.20;;;7.77;;
18651;SDS011;9455;54.302;10.124;2024-02-26T07:00:43;13.80;;;8.27;;
18651;SDS011;9455;54.302;10.124;2024-02-26T07:03:10;15.47;;;7.47;;
18651;SDS011;9455;54.302;10.124;2024-02-26T07:05:36;17.90;;;8.33;;
18651;SDS011;9455;54.302;10.124;2024-02-26T07:08:03;17.17;;;8.43;;
18651;SDS011;9455;54.302;10.124;2024-02-26T07:10:30;212.33;;;22.00;;
18651;SDS011;9455;54.302;10.124;2024-02-26T07:12:58;239.47;;;26.70;;
18651;SDS011;9455;54.302;10.124;2024-02-26T07:15:25;79.80;;;15.50;;
18651;SDS011;9455;54.302;10.124;2024-02-26T07:17:51;28.70;;;10.90;;
18651;SDS011;9455;54.302;10.124;2024-02-26T07:20:18;14.93;;;8.60;;
18651;SDS011;9455;54.302;10.124;2024-02-26T07:22:44;16.97;;;8.20;;
18651;SDS011;9455;54.302;10.124;2024-02-26T07:25:11;18.03;;;8.87;;
18651;SDS011;9455;54.302;10.124;2024-02-26T07:27:38;20.27;;;9.77;;
18651;SDS011;9455;54.302;10.124;2024-02-26T07:30:08;17.80;;;7.77;;
18651;SDS011;9455;54.302;10.124;2024-02-26T07:32:35;18.03;;;6.53;;
18651;SDS011;9455;54.302;10.124;2024-02-26T07:35:02;22.23;;;7.40;;
18651;SDS011;9455;54.302;10.124;2024-02-26T07:37:28;13.57;;;7.27;;
18651;SDS011;9455;54.302;10.124;2024-02-26T07:39:55;16.23;;;7.77;;
18651;SDS011;9455;54.302;10.124;2024-02-26T07:42:21;13.37;;;6.33;;
18651;SDS011;9455;54.302;10.124;2024-02-26T07:44:48;11.80;;;6.23;;
18651;SDS011;9455;54.302;10.124;2024-02-26T07:47:16;14.83;;;6.03;;
18651;SDS011;9455;54.302;10.124;2024-02-26T07:49:43;18.83;;;5.90;;
18651;SDS011;9455;54.302;10.124;2024-02-26T07:52:08;13.33;;;5.10;;
18651;SDS011;9455;54.302;10.124;2024-02-26T07:54:35;7.50;;;5.30;;
18651;SDS011;9455;54.302;10.124;2024-02-26T07:57:01;7.97;;;4.90;;
18651;SDS011;9455;54.302;10.124;2024-02-26T07:59:30;11.23;;;5.60;;
18651;SDS011;9455;54.302;10.124;2024-02-26T08:01:57;10.30;;;5.43;;
18651;SDS011;9455;54.302;10.124;2024-02-26T08:04:25;15.60;;;5.60;;
18651;SDS011;9455;54.302;10.124;2024-02-26T08:06:51;9.57;;;5.13;;
18651;SDS011;9455;54.302;10.124;2024-02-26T08:09:18;9.17;;;5.93;;
18651;SDS011;9455;54.302;10.124;2024-02-26T08:11:45;8.57;;;5.50;;
18651;SDS011;9455;54.302;10.124;2024-02-26T08:14:11;7.70;;;5.20;;
18651;SDS011;9455;54.302;10.124;2024-02-26T08:16:38;10.13;;;4.87;;
18651;SDS011;9455;54.302;10.124;2024-02-26T08:19:05;7.87;;;4.70;;
18651;SDS011;9455;54.302;10.124;2024-02-26T08:21:33;7.87;;;4.50;;
18651;SDS011;9455;54.302;10.124;2024-02-26T08:24:01;18.20;;;4.20;;
18651;SDS011;9455;54.302;10.124;2024-02-26T08:26:28;10.30;;;4.27;;
18651;SDS011;9455;54.302;10.124;2024-02-26T08:28:55;6.63;;;4.23;;
18651;SDS011;9455;54.302;10.124;2024-02-26T08:31:22;7.07;;;4.53;;
18651;SDS011;9455;54.302;10.124;2024-02-26T08:33:49;6.53;;;4.40;;
18651;SDS011;9455;54.302;10.124;2024-02-26T08:36:16;10.97;;;5.07;;
18651;SDS011;9455;54.302;10.124;2024-02-26T08:38:44;10.27;;;5.37;;
18651;SDS011;9455;54.302;10.124;2024-02-26T08:41:10;9.03;;;5.00;;
18651;SDS011;9455;54.302;10.124;2024-02-26T08:43:38;12.07;;;4.70;;
18651;SDS011;9455;54.302;10.124;2024-02-26T08:46:07;9.53;;;5.67;;
18651;SDS011;9455;54.302;10.124;2024-02-26T08:48:34;12.13;;;5.23;;
18651;SDS011;9455;54.302;10.124;2024-02-26T08:51:04;11.00;;;5.93;;
18651;SDS011;9455;54.302;10.124;2024-02-26T08:53:31;9.63;;;5.73;;
18651;SDS011;9455;54.302;10.124;2024-02-26T08:55:59;15.70;;;6.13;;
18651;SDS011;9455;54.302;10.124;2024-02-26T08:58:26;10.50;;;5.77;;
18651;SDS011;9455;54.302;10.124;2024-02-26T09:00:53;12.63;;;6.23;;
18651;SDS011;9455;54.302;10.124;2024-02-26T09:03:20;12.60;;;5.73;;
18651;SDS011;9455;54.302;10.124;2024-02-26T09:05:46;9.93;;;5.50;;
18651;SDS011;9455;54.302;10.124;2024-02-26T09:08:13;14.40;;;7.17;;
18651;SDS011;9455;54.302;10.124;2024-02-26T09:10:39;10.57;;;6.10;;
18651;SDS011;9455;54.302;10.124;2024-02-26T09:13:08;11.67;;;6.10;;
18651;SDS011;9455;54.302;10.124;2024-02-26T09:15:34;10.17;;;5.27;;
18651;SDS011;9455;54.302;10.124;2024-02-26T09:18:01;6.77;;;4.67;;
18651;SDS011;9455;54.302;10.124;2024-02-26T09:20:28;9.50;;;4.30;;
18651;SDS011;9455;54.302;10.124;2024-02-26T09:22:54;7.50;;;3.97;;
18651;SDS011;9455;54.302;10.124;2024-02-26T09:25:21;6.43;;;4.23;;
18651;SDS011;9455;54.302;10.124;2024-02-26T09:27:47;7.10;;;4.20;;
18651;SDS011;9455;54.302;10.124;2024-02-26T09:30:15;12.20;;;5.50;;
18651;SDS011;9455;54.302;10.124;2024-02-26T09:32:45;13.93;;;6.10;;
18651;SDS011;9455;54.302;10.124;2024-02-26T09:35:12;6.77;;;4.47;;
18651;SDS011;9455;54.302;10.124;2024-02-26T09:37:39;10.60;;;4.60;;
18651;SDS011;9455;54.302;10.124;2024-02-26T09:40:06;8.40;;;5.07;;
18651;SDS011;9455;54.302;10.124;2024-02-26T09:42:35;10.90;;;4.00;;
18651;SDS011;9455;54.302;10.124;2024-02-26T09:45:03;8.40;;;4.80;;
18651;SDS011;9455;54.302;10.124;2024-02-26T09:47:34;5.30;;;4.23;;
18651;SDS011;9455;54.302;10.124;2024-02-26T09:50:03;6.87;;;4.60;;
18651;SDS011;9455;54.302;10.124;2024-02-26T09:52:34;5.07;;;4.03;;
18651;SDS011;9455;54.302;10.124;2024-02-26T09:55:04;4.97;;;4.00;;
18651;SDS011;9455;54.302;10.124;2024-02-26T09:57:31;5.57;;;4.30;;
18651;SDS011;9455;54.302;10.124;2024-02-26T09:59:59;6.30;;;4.60;;
18651;SDS011;9455;54.302;10.124;2024-02-26T10:02:32;7.27;;;4.80;;
18651;SDS011;9455;54.302;10.124;2024-02-26T10:05:02;6.90;;;4.83;;
18651;SDS011;9455;54.302;10.124;2024-02-26T10:07:30;8.23;;;4.83;;
18651;SDS011;9455;54.302;10.124;2024-02-26T10:09:57;6.93;;;5.27;;
18651;SDS011;9455;54.302;10.124;2024-02-26T10:12:24;8.13;;;4.97;;
18651;SDS011;9455;54.302;10.124;2024-02-26T10:14:53;6.97;;;4.43;;
18651;SDS011;9455;54.302;10.124;2024-02-26T10:17:20;6.30;;;5.10;;
18651;SDS011;9455;54.302;10.124;2024-02-26T10:19:46;8.73;;;4.73;;
18651;SDS011;9455;54.302;10.124;2024-02-26T10:22:14;6.47;;;4.63;;
18651;SDS011;9455;54.302;10.124;2024-02-26T10:24:41;9.37;;;5.27;;
18651;SDS011;9455;54.302;10.124;2024-02-26T10:27:07;8.23;;;4.83;;
18651;SDS011;9455;54.302;10.124;2024-02-26T10:29:34;9.30;;;4.43;;
18651;SDS011;9455;54.302;10.124;2024-02-26T10:32:01;9.77;;;5.10;;
18651;SDS011;9455;54.302;10.124;2024-02-26T10:34:28;9.73;;;4.73;;
18651;SDS011;9455;54.302;10.124;2024-02-26T10:36:54;7.33;;;4.97;;
18651;SDS011;9455;54.302;10.124;2024-02-26T10:39:22;7.47;;;4.23;;
18651;SDS011;9455;54.302;10.124;2024-02-26T10:41:49;10.03;;;5.50;;
18651;SDS011;9455;54.302;10.124;2024-02-26T10:44:16;9.20;;;5.30;;
18651;SDS011;9455;54.302;10.124;2024-02-26T10:46:42;11.10;;;5.57;;
18651;SDS011;9455;54.302;10.124;2024-02-26T10:49:13;7.93;;;5.07;;
18651;SDS011;9455;54.302;10.124;2024-02-26T10:51:43;7.67;;;4.60;;
18651;SDS011;9455;54.302;10.124;2024-02-26T10:54:12;7.90;;;5.23;;
18651;SDS011;9455;54.302;10.124;2024-02-26T10:56:42;10.40;;;6.17;;
18651;SDS011;9455;54.302;10.124;2024-02-26T10:59:11;9.60;;;5.37;;
18651;SDS011;9455;54.302;10.124;2024-02-26T11:01:38;13.73;;;6.10;;
18651;SDS011;9455;54.302;10.124;2024-02-26T11:04:06;8.77;;;5.53;;
18651;SDS011;9455;54.302;10.124;2024-02-26T11:06:35;13.50;;;6.77;;
18651;SDS011;9455;54.302;10.124;2024-02-26T11:09:02;12.87;;;6.37;;
18651;SDS011;9455;54.302;10.124;2024-02-26T11:11:29;12.47;;;6.20;;
18651;SDS011;9455;54.302;10.124;2024-02-26T11:14:00;13.13;;;6.57;;
18651;SDS011;9455;54.302;10.124;2024-02-26T11:16:29;15.70;;;7.07;;
18651;SDS011;9455;54.302;10.124;2024-02-26T11:18:56;14.27;;;6.57;;
18651;SDS011;9455;54.302;10.124;2024-02-26T11:21:24;14.07;;;6.90;;
18651;SDS011;9455;54.302;10.124;2024-02-26T11:23:55;13.00;;;6.73;;
18651;SDS011;9455;54.302;10.124;2024-02-26T11:26:22;15.63;;;8.13;;
18651;SDS011;9455;54.302;10.124;2024-02-26T11:28:51;13.87;;;7.97;;
18651;SDS011;9455;54.302;10.124;2024-02-26T11:31:20;14.10;;;7.00;;
18651;SDS011;9455;54.302;10.124;2024-02-26T11:33:52;15.00;;;7.60;;
18651;SDS011;9455;54.302;10.124;2024-02-26T11:36:20;14.40;;;7.50;;
18651;SDS011;9455;54.302;10.124;2024-02-26T11:38:46;12.07;;;6.83;;
18651;SDS011;9455;54.302;10.124;2024-02-26T11:41:16;15.10;;;8.07;;
18651;SDS011;9455;54.302;10.124;2024-02-26T11:43:49;13.53;;;7.37;;
18651;SDS011;9455;54.302;10.124;2024-02-26T11:46:25;12.03;;;6.77;;
18651;SDS011;9455;54.302;10.124;2024-02-26T11:48:54;12.73;;;6.87;;
18651;SDS011;9455;54.302;10.124;2024-02-26T11:51:24;13.47;;;7.03;;
18651;SDS011;9455;54.302;10.124;2024-02-26T11:53:51;12.73;;;7.53;;
18651;SDS011;9455;54.302;10.124;2024-02-26T11:56:21;15.60;;;7.50;;
18651;SDS011;9455;54.302;10.124;2024-02-26T11:58:53;17.13;;;7.63;;
18651;SDS011;9455;54.302;10.124;2024-02-26T12:01:37;14.63;;;7.03;;
18651;SDS011;9455;54.302;10.124;2024-02-26T12:04:05;15.73;;;6.67;;
18651;SDS011;9455;54.302;10.124;2024-02-26T12:06:39;9.93;;;6.17;;
18651;SDS011;9455;54.302;10.124;2024-02-26T12:09:07;9.80;;;6.10;;
18651;SDS011;9455;54.302;10.124;2024-02-26T12:11:37;10.97;;;6.43;;
18651;SDS011;9455;54.302;10.124;2024-02-26T12:14:05;13.17;;;6.70;;
18651;SDS011;9455;54.302;10.124;2024-02-26T12:16:37;9.43;;;5.87;;
18651;SDS011;9455;54.302;10.124;2024-02-26T12:19:05;8.70;;;5.33;;
18651;SDS011;9455;54.302;10.124;2024-02-26T12:21:33;9.00;;;5.30;;
18651;SDS011;9455;54.302;10.124;2024-02-26T12:24:10;8.80;;;5.70;;
18651;SDS011;9455;54.302;10.124;2024-02-26T12:26:38;8.00;;;5.90;;
18651;SDS011;9455;54.302;10.124;2024-02-26T12:29:05;12.77;;;5.33;;
18651;SDS011;9455;54.302;10.124;2024-02-26T12:31:32;8.23;;;5.23;;
18651;SDS011;9455;54.302;10.124;2024-02-26T12:34:00;9.57;;;5.57;;
18651;SDS011;9455;54.302;10.124;2024-02-26T12:36:27;8.43;;;4.37;;
18651;SDS011;9455;54.302;10.124;2024-02-26T12:38:54;10.17;;;5.00;;
18651;SDS011;9455;54.302;10.124;2024-02-26T12:41:21;9.90;;;4.73;;
18651;SDS011;9455;54.302;10.124;2024-02-26T12:43:48;8.93;;;5.20;;
18651;SDS011;9455;54.302;10.124;2024-02-26T12:46:14;10.40;;;5.13;;
18651;SDS011;9455;54.302;10.124;2024-02-26T12:48:42;9.30;;;5.27;;
18651;SDS011;9455;54.302;10.124;2024-02-26T12:51:11;9.87;;;5.80;;
18651;SDS011;9455;54.302;10.124;2024-02-26T12:53:38;10.27;;;5.93;;
18651;SDS011;9455;54.302;10.124;2024-02-26T12:56:05;9.27;;;5.80;;
18651;SDS011;9455;54.302;10.124;2024-02-26T12:58:34;14.00;;;5.70;;
18651;SDS011;9455;54.302;10.124;2024-02-26T13:01:03;8.07;;;5.13;;
18651;SDS011;9455;54.302;10.124;2024-02-26T13:03:30;11.90;;;6.20;;
18651;SDS011;9455;54.302;10.124;2024-02-26T13:05:58;12.17;;;6.10;;
18651;SDS011;9455;54.302;10.124;2024-02-26T13:08:26;9.03;;;5.80;;
18651;SDS011;9455;54.302;10.124;2024-02-26T13:10:53;9.33;;;4.97;;
18651;SDS011;9455;54.302;10.124;2024-02-26T13:13:19;9.57;;;5.67;;
18651;SDS011;9455;54.302;10.124;2024-02-26T13:15:46;15.23;;;5.77;;
18651;SDS011;9455;54.302;10.124;2024-02-26T13:18:13;7.47;;;5.00;;
18651;SDS011;9455;54.302;10.124;2024-02-26T13:20:40;10.87;;;5.97;;
18651;SDS011;9455;54.302;10.124;2024-02-26T13:23:09;13.20;;;6.67;;
18651;SDS011;9455;54.302;10.124;2024-02-26T13:25:39;9.00;;;5.67;;
18651;SDS011;9455;54.302;10.124;2024-02-26T13:28:09;11.30;;;5.53;;
18651;SDS011;9455;54.302;10.124;2024-02-26T13:30:41;15.47;;;5.53;;
18651;SDS011;9455;54.302;10.124;2024-02-26T13:33:08;6.97;;;5.07;;
18651;SDS011;9455;54.302;10.124;2024-02-26T13:35:35;10.10;;;6.33;;
18651;SDS011;9455;54.302;10.124;2024-02-26T13:38:02;9.00;;;5.37;;
18651;SDS011;9455;54.302;10.124;2024-02-26T13:40:29;10.40;;;6.83;;
18651;SDS011;9455;54.302;10.124;2024-02-26T13:42:57;8.27;;;5.20;;
18651;SDS011;9455;54.302;10.124;2024-02-26T13:45:23;7.83;;;5.60;;
18651;SDS011;9455;54.302;10.124;2024-02-26T13:47:50;7.73;;;5.03;;
18651;SDS011;9455;54.302;10.124;2024-02-26T13:50:16;9.30;;;5.50;;
18651;SDS011;9455;54.302;10.124;2024-02-26T13:52:46;11.53;;;5.73;;
18651;SDS011;9455;54.302;10.124;2024-02-26T13:55:18;8.07;;;5.20;;
18651;SDS011;9455;54.302;10.124;2024-02-26T13:57:44;11.17;;;5.63;;
18651;SDS011;9455;54.302;10.124;2024-02-26T14:00:13;9.03;;;6.00;;
18651;SDS011;9455;54.302;10.124;2024-02-26T14:02:40;9.20;;;5.53;;
18651;SDS011;9455;54.302;10.124;2024-02-26T14:05:07;10.77;;;5.63;;
18651;SDS011;9455;54.302;10.124;2024-02-26T14:07:34;10.40;;;7.10;;
18651;SDS011;9455;54.302;10.124;2024-02-26T14:10:00;9.93;;;6.40;;
18651;SDS011;9455;54.302;10.124;2024-02-26T14:12:27;10.73;;;6.20;;
18651;SDS011;9455;54.302;10.124;2024-02-26T14:14:53;12.27;;;6.63;;
18651;SDS011;9455;54.302;10.124;2024-02-26T14:17:22;11.60;;;6.63;;
18651;SDS011;9455;54.302;10.124;2024-02-26T14:19:48;9.60;;;6.33;;
18651;SDS011;9455;54.302;10.124;2024-02-26T14:22:15;11.23;;;6.17;;
18651;SDS011;9455;54.302;10.124;2024-02-26T14:24:41;10.93;;;6.07;;
18651;SDS011;9455;54.302;10.124;2024-02-26T14:27:08;13.50;;;6.23;;
18651;SDS011;9455;54.302;10.124;2024-02-26T14:29:37;10.37;;;6.10;;
18651;SDS011;9455;54.302;10.124;2024-02-26T14:32:05;12.10;;;6.37;;
18651;SDS011;9455;54.302;10.124;2024-02-26T14:34:33;12.17;;;6.33;;
18651;SDS011;9455;54.302;10.124;2024-02-26T14:36:59;14.63;;;6.17;;
18651;SDS011;9455;54.302;10.124;2024-02-26T14:39:26;13.30;;;6.73;;